createdAt,value
2022-10-26T00:03:01.073Z,100275.75
2022-10-26T00:08:04.047Z,100278.82
2022-10-26T00:13:10.821Z,100279.91
2022-10-26T00:18:13.387Z,100282.34
2022-10-26T00:23:16.138Z,100284.68
2022-10-26T00:28:18.847Z,100285.07
2022-10-26T00:33:21.555Z,100286.88
2022-10-26T00:38:24.722Z,100285.52
2022-10-26T00:43:27.356Z,100287.64
2022-10-26T00:48:34.522Z,100289.91
2022-10-26T00:53:38.013Z,100287.92
2022-10-26T00:58:41.156Z,100285.17
2022-10-26T01:03:45.045Z,100288.97
2022-10-26T01:08:48.547Z,100293.08
2022-10-26T01:13:54.405Z,100294.40
2022-10-26T01:19:23.438Z,100291.98
2022-10-26T01:24:29.090Z,100289.77
2022-10-26T01:30:05.939Z,100287.90
2022-10-26T01:35:35.461Z,100287.30
2022-10-26T01:40:46.570Z,100282.48
2022-10-26T01:45:51.820Z,100282.30
2022-10-26T01:50:57.632Z,100285.75
2022-10-26T01:56:01.784Z,100281.43
2022-10-26T02:01:46.242Z,100283.30
2022-10-26T02:07:15.473Z,100284.98
2022-10-26T02:12:52.799Z,100283.70
2022-10-26T02:18:11.998Z,100286.07
2022-10-26T02:23:15.494Z,100286.73
2022-10-26T02:28:22.693Z,100286.88
2022-10-26T02:33:30.634Z,100283.52
2022-10-26T02:38:35.690Z,100281.10
2022-10-26T02:43:45.039Z,100280.96
2022-10-26T02:48:47.809Z,100287.52
2022-10-26T02:53:50.423Z,100291.85
2022-10-26T02:58:57.983Z,100292.16
2022-10-26T03:04:01.096Z,100291.56
2022-10-26T03:09:04.379Z,100292.15
2022-10-26T03:14:07.064Z,100291.39
2022-10-26T03:19:09.787Z,100297.23
2022-10-26T03:24:12.480Z,100304.77
2022-10-26T03:29:15.263Z,100308.27
2022-10-26T03:34:17.974Z,100315.63
2022-10-26T03:39:20.676Z,100322.41
2022-10-26T03:44:23.645Z,100329.09
2022-10-26T03:49:26.357Z,100327.63
2022-10-26T03:54:29.032Z,100334.96
2022-10-26T03:59:31.689Z,100344.29
2022-10-26T04:04:34.447Z,100342.71
2022-10-26T04:09:37.217Z,100342.68
2022-10-26T04:14:39.881Z,100355.89
2022-10-26T04:19:42.586Z,100359.05
2022-10-26T04:24:45.320Z,100365.54
2022-10-26T04:29:48.052Z,100368.59
2022-10-26T04:34:50.903Z,100374.82
2022-10-26T04:39:53.668Z,100380.24
2022-10-26T04:44:56.544Z,100382.20
2022-10-26T04:49:59.168Z,100380.69
2022-10-26T04:55:06.043Z,100378.36
2022-10-26T05:00:09.500Z,100385.70
2022-10-26T05:05:14.273Z,100386.77
2022-10-26T05:10:18.019Z,100396.39
2022-10-26T05:15:21.324Z,100398.07
2022-10-26T05:20:29.658Z,100400.54
2022-10-26T05:25:35.578Z,100401.18
2022-10-26T05:30:38.309Z,100402.15
2022-10-26T05:35:41.248Z,100411.05
2022-10-26T05:40:53.017Z,100411.30
2022-10-26T05:45:56.059Z,100423.11
2022-10-26T05:51:02.838Z,100430.55
2022-10-26T05:56:26.837Z,100433.85
2022-10-26T06:02:08.732Z,100430.17
2022-10-26T06:07:14.541Z,100434.45
2022-10-26T06:12:19.626Z,100438.75
2022-10-26T06:17:59.425Z,100443.91
2022-10-26T06:23:17.348Z,100445.48
2022-10-26T06:28:45.064Z,100449.79
2022-10-26T06:33:52.582Z,100455.17
2022-10-26T06:39:08.965Z,100457.91
2022-10-26T06:44:21.228Z,100452.98
2022-10-26T06:49:41.651Z,100464.69
2022-10-26T06:54:47.343Z,100468.45
2022-10-26T07:00:09.308Z,100469.73
2022-10-26T07:05:13.345Z,100472.02
2022-10-26T07:10:25.226Z,100472.57
2022-10-26T07:15:28.337Z,100484.48
2022-10-26T07:20:35.408Z,100486.43
2022-10-26T07:25:40.570Z,100485.57
2022-10-26T07:30:43.846Z,100490.35
2022-10-26T07:35:47.045Z,100493.86
2022-10-26T07:40:50.661Z,100496.45
2022-10-26T07:45:53.456Z,100500.92
2022-10-26T07:50:56.225Z,100499.53
2022-10-26T07:56:00.140Z,100501.00
2022-10-26T08:01:11.713Z,100507.42
2022-10-26T08:06:14.784Z,100515.33
2022-10-26T08:11:18.152Z,100515.67
2022-10-26T08:16:22.263Z,100515.65
2022-10-26T08:21:36.067Z,100520.67
2022-10-26T08:26:43.166Z,100524.13
2022-10-26T08:31:48.841Z,100528.00
2022-10-26T08:36:54.062Z,100530.66
2022-10-26T08:42:05.725Z,100539.52
2022-10-26T08:52:32.895Z,100542.91
2022-10-26T08:57:39.663Z,100539.05
2022-10-26T09:02:42.404Z,100533.49
2022-10-26T09:07:57.407Z,100534.13
2022-10-26T09:13:24.869Z,100532.98
2022-10-26T09:24:15.843Z,100542.67
2022-10-26T09:29:21.339Z,100551.59
2022-10-26T09:34:30.106Z,100557.39
2022-10-26T09:39:39.590Z,100561.37
2022-10-26T09:45:01.599Z,100567.12
2022-10-26T09:50:54.152Z,100566.21
2022-10-26T09:56:13.218Z,100561.83
2022-10-26T10:01:35.532Z,100569.10
2022-10-26T10:06:41.411Z,100570.02
2022-10-26T10:11:56.921Z,100564.33
2022-10-26T10:17:08.627Z,100568.45
2022-10-26T10:22:22.500Z,100568.41
2022-10-26T10:27:27.741Z,100563.29
2022-10-26T10:32:38.640Z,100562.77
2022-10-26T10:38:01.031Z,100562.44
2022-10-26T10:43:14.340Z,100565.55
2022-10-26T10:48:23.389Z,100568.56
2022-10-26T10:53:31.448Z,100574.52
2022-10-26T10:58:44.197Z,100582.86
2022-10-26T11:09:24.310Z,100582.27
2022-10-26T11:14:33.276Z,100580.36
2022-10-26T11:19:47.483Z,100577.92
2022-10-26T11:25:13.505Z,100581.98
2022-10-26T11:30:25.759Z,100581.62
2022-10-26T11:35:32.353Z,100586.15
2022-10-26T11:40:40.913Z,100589.73
2022-10-26T11:45:48.006Z,100593.23
2022-10-26T11:50:54.395Z,100592.96
2022-10-26T11:55:57.575Z,100598.60
2022-10-26T12:01:09.413Z,100604.61
2022-10-26T12:06:15.393Z,100610.11
2022-10-26T12:11:36.312Z,100610.30
2022-10-26T12:17:07.253Z,100613.80
2022-10-26T12:22:14.103Z,100616.07
2022-10-26T12:27:35.416Z,100614.08
2022-10-26T12:32:40.309Z,100624.43
2022-10-26T12:37:48.495Z,100624.98
2022-10-26T12:42:53.942Z,100627.98
2022-10-26T12:48:34.675Z,100622.39
2022-10-26T12:53:45.808Z,100626.00
2022-10-26T12:59:04.991Z,100621.02
2022-10-26T13:04:25.530Z,100618.04
2022-10-26T13:09:33.511Z,100616.69
2022-10-26T13:14:55.626Z,100623.21
2022-10-26T13:20:02.640Z,100629.84
2022-10-26T13:25:06.536Z,100632.88
2022-10-26T13:30:09.211Z,100631.34
2022-10-26T13:35:13.741Z,100638.79
2022-10-26T13:40:19.641Z,100640.20
2022-10-26T13:45:29.706Z,100642.45
2022-10-26T13:51:04.408Z,100650.68
2022-10-26T13:56:28.486Z,100660.06
2022-10-26T14:01:31.735Z,100665.67
2022-10-26T14:06:39.512Z,100666.83
2022-10-26T14:11:59.222Z,100653.09
2022-10-26T14:17:05.409Z,100650.21
2022-10-26T14:22:08.256Z,100653.89
2022-10-26T14:27:19.190Z,100662.81
2022-10-26T14:32:22.988Z,100664.02
2022-10-26T14:37:54.250Z,100656.36
2022-10-26T14:43:03.777Z,100654.96
2022-10-26T14:48:07.780Z,100664.27
2022-10-26T14:53:20.019Z,100661.20
2022-10-26T14:58:34.097Z,100663.11
2022-10-26T15:03:36.846Z,100667.11
2022-10-26T15:08:55.945Z,100679.00
2022-10-26T15:14:01.499Z,100675.65
2022-10-26T15:19:11.079Z,100673.50
2022-10-26T15:24:22.147Z,100673.28
2022-10-26T15:29:38.680Z,100681.25
2022-10-26T15:34:41.455Z,100686.36
2022-10-26T15:39:44.154Z,100687.47
2022-10-26T15:44:46.883Z,100684.55
2022-10-26T15:49:49.568Z,100691.48
2022-10-26T15:54:52.245Z,100692.83
2022-10-26T15:59:54.915Z,100693.13
2022-10-26T16:04:57.637Z,100692.70
2022-10-26T16:10:00.555Z,100694.93
2022-10-26T16:15:05.879Z,100693.67
2022-10-26T16:20:14.670Z,100693.79
2022-10-26T16:25:20.122Z,100697.91
2022-10-26T16:30:26.990Z,100702.23
2022-10-26T16:35:32.372Z,100710.20
2022-10-26T16:40:35.149Z,100718.84
2022-10-26T16:45:41.021Z,100722.36
2022-10-26T16:50:43.774Z,100721.58
2022-10-26T16:55:46.548Z,100729.37
2022-10-26T17:00:54.979Z,100733.66
2022-10-26T17:05:59.867Z,100739.32
2022-10-26T17:11:08.965Z,100754.36
2022-10-26T17:16:21.474Z,100768.84
2022-10-26T17:21:34.510Z,100773.60
2022-10-26T17:26:37.535Z,100780.29
2022-10-26T17:31:40.335Z,100790.92
2022-10-26T17:36:43.150Z,100793.21
2022-10-26T17:41:45.899Z,100800.70
2022-10-26T17:46:48.582Z,100802.64
2022-10-26T17:51:51.407Z,100801.96
2022-10-26T17:56:54.089Z,100804.21
2022-10-26T18:01:57.074Z,100808.29
2022-10-26T18:06:59.914Z,100815.85
2022-10-26T18:12:02.741Z,100823.20
2022-10-26T18:17:05.436Z,100825.83
2022-10-26T18:22:08.142Z,100825.84
2022-10-26T18:27:10.870Z,100824.14
2022-10-26T18:32:13.612Z,100820.67
2022-10-26T18:37:16.302Z,100822.05
2022-10-26T18:42:18.993Z,100828.48
2022-10-26T18:47:21.661Z,100835.64
2022-10-26T18:52:27.254Z,100842.63
2022-10-26T18:57:30.075Z,100842.97
2022-10-26T19:02:32.790Z,100846.13
2022-10-26T19:07:38.022Z,100852.88
2022-10-26T19:12:40.706Z,100860.95
2022-10-26T19:17:43.452Z,100867.98
2022-10-26T19:22:46.182Z,100873.92
2022-10-26T19:27:49.223Z,100879.88
2022-10-26T19:32:52.771Z,100890.20
2022-10-26T19:37:55.866Z,100901.32
2022-10-26T19:42:59.168Z,100909.52
2022-10-26T19:48:01.859Z,100916.13
2022-10-26T19:53:04.565Z,100920.83
2022-10-26T19:58:07.275Z,100923.28
2022-10-26T20:03:11.859Z,100924.33
2022-10-26T20:08:14.546Z,100924.66
2022-10-26T20:13:17.240Z,100928.11
2022-10-26T20:18:21.295Z,100930.72
2022-10-26T20:23:24.615Z,100932.45
2022-10-26T20:28:27.397Z,100936.41
2022-10-26T20:33:30.156Z,100934.63
2022-10-26T20:38:33.177Z,100934.24
2022-10-26T20:43:39.462Z,100939.28
2022-10-26T20:48:42.920Z,100936.52
2022-10-26T20:53:52.754Z,100933.92
2022-10-26T20:58:58.960Z,100935.48
2022-10-26T21:04:03.525Z,100932.67
2022-10-26T21:09:07.671Z,100932.15
2022-10-26T21:14:10.356Z,100935.45
2022-10-26T21:19:13.853Z,100927.10
2022-10-26T21:24:16.649Z,100934.40
2022-10-26T21:29:19.371Z,100939.81
2022-10-26T21:34:22.090Z,100932.87
2022-10-26T21:39:24.785Z,100940.17
2022-10-26T21:44:42.776Z,100944.00
2022-10-26T21:49:45.562Z,100947.32
2022-10-26T21:54:48.279Z,100953.94
2022-10-26T21:59:51.216Z,100949.25
2022-10-26T22:04:54.030Z,100956.88
2022-10-26T22:10:10.231Z,100958.26
2022-10-26T22:15:13.901Z,100954.77
2022-10-26T22:20:16.687Z,100955.05
2022-10-26T22:25:19.391Z,100956.67
2022-10-26T22:30:22.099Z,100960.89
2022-10-26T22:35:29.582Z,100964.90
2022-10-26T22:40:32.831Z,100960.56
2022-10-26T22:45:35.508Z,100963.23
2022-10-26T22:50:38.902Z,100965.06
2022-10-26T22:55:42.207Z,100969.14
2022-10-26T23:00:44.965Z,100973.39
2022-10-26T23:05:48.448Z,100979.55
2022-10-26T23:10:51.228Z,100980.52
2022-10-26T23:15:53.952Z,100974.73
2022-10-26T23:20:56.616Z,100977.15
2022-10-26T23:26:04.703Z,100975.86
2022-10-26T23:31:08.136Z,100979.84
2022-10-26T23:36:11.313Z,100980.49
2022-10-26T23:41:14.587Z,100979.03
2022-10-26T23:46:17.385Z,100974.99
2022-10-26T23:51:20.166Z,100979.46
2022-10-26T23:56:23.027Z,100977.06
